Bierset, Belgium

2:00 AM CEST on April 25, 2018 (GMT +0200)
Liege

Weather History for EBLG - March, 2014

Change the Weather History Date:

Tuesday, March 11, 2014

  Actual Average Record
Temperature  
Mean Temperature 48 °F -  
Max Temperature 55 °F 51 °F 59 °F (2002)
Min Temperature 40 °F 38 °F 24 °F (2006)
Degree Days  
Heating Degree Days 18    
Moisture  
Dew Point 42 °F    
Average Humidity 86    
Maximum Humidity 100    
Minimum Humidity 55    
Precipitation  
Precipitation 0.01 in - - ()
Sea Level Pressure  
Sea Level Pressure 30.42 in    
Wind  
Wind Speed 7 mph ()    
Max Wind Speed 13 mph    
Max Gust Speed -    
Visibility 1.3 miles    
Events Fog    
Averages and records for this station are not official NWS values.
T = Trace of Precipitation, MM = Missing Value Source: Averaged Metar Reports

Daily Weather History Graph

Daily Weather History Graph

Search for Another Location

Airport or City:

Astronomy

Mar. 11, 2014 Rise Set
Actual Time 7:01 AM CET 6:36 PM CET
Civil Twilight 6:28 AM CET 7:08 PM CET
Nautical Twilight 5:50 AM CET 7:46 PM CET
Astronomical Twilight 5:11 AM CET 8:25 PM CET
Moon 1:35 PM CET (3/11) 4:08 AM CET (3/11)
Length of Visible Light 12h 40m
Length of Day
11h 34m
Waxing Gibbous, 76% of the Moon is Illuminated
Mar 11
Waxing Gibbous
Mar 16
Full
Mar 24
Last Quarter
Mar 30
New
Apr 7
First Quarter

Hourly Weather History & Observations

Time (CET) Temp. Windchill Dew Point Humidity Pressure Visibility Wind Dir Wind Speed Gust Speed Precip Events Conditions
12:00 AM 44 °F - 40 °F 81% 30.35 in 3 mi North 6.7 mph - -  
12:20 AM 44.6 °F 42.2 °F 41.0 °F 87% 30.33 in - North 4.6 mph - N/A   Mist
12:50 AM 42.8 °F 40.1 °F 41.0 °F 93% 30.33 in - North 4.6 mph - N/A   Mist
1:00 AM 43 °F - 41 °F 92% 30.36 in 2 mi North 4.5 mph - -   Mist
1:20 AM 42.8 °F - 42.8 °F 100% 30.33 in 1.7 mi Variable 2.3 mph - N/A   Mist
1:50 AM 41.0 °F 37.1 °F 41.0 °F 100% 30.36 in 1.7 mi NNE 5.8 mph - N/A   Partly Cloudy
2:00 AM 42 °F - 40 °F 92% 30.38 in 2 mi NNE 4.5 mph - -   Mist
2:20 AM 42.8 °F 41.1 °F 41.0 °F 93% 30.36 in 1.1 mi North 3.5 mph - N/A   Scattered Clouds
2:50 AM 42.8 °F 41.1 °F 41.0 °F 93% 30.36 in 0.9 mi North 3.5 mph - N/A   Scattered Clouds
3:00 AM 42 °F - 41 °F 96% 30.39 in 1 mi North 4.5 mph - -   Mist
3:20 AM 41.0 °F 37.1 °F 41.0 °F 100% 30.36 in 0.7 mi North 5.8 mph - N/A   Mostly Cloudy
3:50 AM 41.0 °F 38.0 °F 39.2 °F 93% 30.36 in - North 4.6 mph - N/A Fog Fog
4:00 AM 40 °F - 40 °F 100% 30.39 in 0 mi North 4.5 mph - - Fog Partial Fog
4:20 AM 41.0 °F 37.1 °F 41.0 °F 100% 30.36 in 0.4 mi North 5.8 mph - N/A Fog Fog
4:50 AM 41.0 °F 35.2 °F 41.0 °F 100% 30.36 in 0.2 mi North 9.2 mph - N/A Fog Fog
5:00 AM 41 °F - 41 °F 99% 30.39 in 0 mi North 8.9 mph - - Fog Partial Fog
5:20 AM 41.0 °F 35.2 °F 41.0 °F 100% 30.36 in 0.1 mi NNE 9.2 mph - N/A Fog Fog
5:50 AM 41.0 °F 35.2 °F 41.0 °F 100% 30.36 in 0.1 mi NNE 9.2 mph - N/A Fog Fog
6:00 AM 41 °F - 41 °F 99% 30.40 in 0 mi NNE 8.9 mph - - Fog Partial Fog
6:20 AM 41.0 °F 36.4 °F 41.0 °F 100% 30.39 in 0.1 mi NE 6.9 mph - N/A Fog Fog
6:50 AM 41.0 °F 34.7 °F 41.0 °F 100% 30.39 in 0.1 mi NE 10.4 mph - N/A Fog Fog
7:00 AM 41 °F - 40 °F 96% 30.43 in 0 mi NE 11.2 mph - - Fog Partial Fog
7:20 AM 41.0 °F 34.7 °F 41.0 °F 100% 30.39 in 0.2 mi NE 10.4 mph - N/A Fog Fog
7:50 AM 41.0 °F 35.2 °F 41.0 °F 100% 30.42 in 0.2 mi NE 9.2 mph - N/A Fog Fog
8:00 AM 41 °F - 40 °F 96% 30.44 in 0 mi NE 8.9 mph - - Fog Partial Fog
8:20 AM 41.0 °F 34.7 °F 41.0 °F 100% 30.42 in 0.2 mi NE 10.4 mph - N/A Fog Fog
8:50 AM 41.0 °F 35.2 °F 39.2 °F 93% 30.42 in 0.3 mi NE 9.2 mph - N/A Fog Fog
9:00 AM 41 °F - 40 °F 94% 30.46 in 0 mi NE 8.9 mph - - Fog Partial Fog
9:20 AM 41.0 °F 34.3 °F 41.0 °F 100% 30.42 in 0.5 mi ENE 11.5 mph - N/A Fog Fog
9:50 AM 41.0 °F 35.2 °F 41.0 °F 100% 30.45 in 0.7 mi NE 9.2 mph - N/A   Mostly Cloudy
10:00 AM 42 °F - 40 °F 92% 30.47 in 1 mi NE 8.9 mph - -   Mist
10:20 AM 42.8 °F 37.5 °F 41.0 °F 93% 30.45 in 0.9 mi NE 9.2 mph - N/A   Mostly Cloudy
10:50 AM 42.8 °F 37.0 °F 41.0 °F 93% 30.45 in 1.0 mi ENE 10.4 mph - N/A   Mostly Cloudy
11:00 AM 43 °F - 41 °F 88% 30.48 in 1 mi ENE 8.9 mph - -   Mist
11:20 AM 42.8 °F 37.0 °F 41.0 °F 93% 30.45 in 1.0 mi NE 10.4 mph - N/A   Mostly Cloudy
11:50 AM 44.6 °F 38.8 °F 41.0 °F 87% 30.45 in 1.2 mi ENE 11.5 mph - N/A   Mostly Cloudy
12:00 PM 44 °F - 41 °F 83% 30.48 in 1 mi ENE 11.2 mph - -   Mist
12:20 PM 44.6 °F 39.7 °F 41.0 °F 87% 30.45 in 1.0 mi NE 9.2 mph - N/A   Mostly Cloudy
12:50 PM 48.2 °F - 42.8 °F 82% 30.45 in 1.1 mi NE 10.4 mph - N/A   Mostly Cloudy
1:00 PM 47 °F - 42 °F 79% 30.47 in 1 mi NE 11.2 mph - -   Mist
1:20 PM 48.2 °F - 42.8 °F 82% 30.42 in 1.3 mi NNE 9.2 mph - N/A   Haze
1:50 PM 50.0 °F - 42.8 °F 76% 30.42 in 1.6 mi NE 10.4 mph - N/A   Haze
2:00 PM 50 °F - 42 °F 67% 30.45 in 2 mi NE 11.2 mph - -   Mist
2:20 PM 51.8 °F - 42.8 °F 71% 30.42 in 1.7 mi NE 11.5 mph - N/A   Haze
2:50 PM 53.6 °F - 42.8 °F 67% 30.42 in 1.8 mi NE 12.7 mph - N/A   Haze
3:00 PM 54 °F - 44 °F 58% 30.43 in 2 mi NE 11.2 mph - -   Mist
3:20 PM 55.4 °F - 44.6 °F 67% 30.39 in - NE 12.7 mph - N/A   Haze
3:50 PM 55.4 °F - 42.8 °F 63% 30.39 in - NNE 11.5 mph - N/A   Haze
4:00 PM 55 °F - 43 °F 55% 30.42 in 2 mi NNE 11.2 mph - -   Mist
4:20 PM 55.4 °F - 42.8 °F 63% 30.39 in - NNE 12.7 mph - N/A   Haze
4:50 PM 55.4 °F - 42.8 °F 63% 30.39 in 2.5 mi NNE 12.7 mph - N/A   Haze
5:00 PM 55 °F - 44 °F 55% 30.42 in 2 mi NNE 13.4 mph - -   Mist
5:20 PM 55.4 °F - 42.8 °F 63% 30.42 in 2.5 mi NNE 12.7 mph - N/A   Haze
5:50 PM 53.6 °F - 42.8 °F 67% 30.42 in - NNE 11.5 mph - N/A   Haze
6:00 PM 54 °F - 43 °F 56% 30.43 in 3 mi NNE 11.2 mph - -   Mist
6:20 PM 51.8 °F - 42.8 °F 71% 30.42 in - NNE 9.2 mph - N/A   Haze
6:50 PM 50.0 °F - 44.6 °F 82% 30.42 in - NNE 9.2 mph - N/A   Haze
7:00 PM 50 °F - 44 °F 73% 30.45 in 3 mi NNE 8.9 mph - -   Mist
7:20 PM 48.2 °F - 42.8 °F 82% 30.45 in - NNE 6.9 mph - N/A   Mist
7:50 PM 46.4 °F 43.5 °F 42.8 °F 87% 30.45 in - NNE 5.8 mph - N/A   Mist
8:00 PM 47 °F - 42 °F 78% 30.47 in 3 mi NNE 6.7 mph - -   Mist
8:20 PM 46.4 °F 43.5 °F 42.8 °F 87% 30.45 in 3.1 mi NNE 5.8 mph - N/A   Mist
8:50 PM 46.4 °F 45.2 °F 42.8 °F 87% 30.45 in - NNE 3.5 mph - N/A   Mist
9:00 PM 46 °F - 42 °F 82% 30.48 in 3 mi NNE 2.2 mph - -   Mist
9:20 PM 46.4 °F 44.3 °F 42.8 °F 87% 30.45 in - NNE 4.6 mph - N/A   Mist
9:50 PM 46.4 °F 44.3 °F 42.8 °F 87% 30.45 in 2.8 mi NNE 4.6 mph - N/A   Mist
10:00 PM 46 °F - 42 °F 83% 30.48 in 3 mi NNE 4.5 mph - -   Mist
10:20 PM 44.6 °F 40.2 °F 41.0 °F 87% 30.45 in 2.5 mi NE 8.1 mph - N/A   Mist
10:50 PM 44.6 °F 39.7 °F 41.0 °F 87% 30.45 in 2.5 mi NE 9.2 mph - N/A   Mist
11:00 PM 44 °F - 41 °F 85% 30.48 in 2 mi NE 8.9 mph - -   Mist
11:20 PM 44.6 °F 39.2 °F 41.0 °F 87% 30.45 in 2.5 mi NE 10.4 mph - N/A   Mist
11:50 PM 44.6 °F 39.2 °F 41.0 °F 87% 30.45 in - NE 10.4 mph - N/A   Mist